createdAt,value
2019-05-06T00:02:24.640Z,89.60
2019-05-06T00:04:51.413Z,89.40
2019-05-06T00:07:19.570Z,89.40
2019-05-06T00:09:45.844Z,89.70
2019-05-06T00:12:14.354Z,89.40
2019-05-06T00:14:40.372Z,89.80
2019-05-06T00:17:07.120Z,90.00
2019-05-06T00:19:34.144Z,90.10
2019-05-06T00:22:00.774Z,89.80
2019-05-06T00:24:29.094Z,89.70
2019-05-06T00:27:01.123Z,89.40
2019-05-06T00:29:28.876Z,89.50
2019-05-06T00:31:55.270Z,89.60
2019-05-06T00:34:21.731Z,89.90
2019-05-06T00:36:48.103Z,90.00
2019-05-06T00:39:24.336Z,89.90
2019-05-06T00:42:04.921Z,89.90
2019-05-06T00:44:34.311Z,90.40
2019-05-06T00:47:00.593Z,90.00
2019-05-06T00:49:27.006Z,90.10
2019-05-06T00:51:55.004Z,89.70
2019-05-06T00:54:29.158Z,90.00
2019-05-06T00:56:56.735Z,90.00
2019-05-06T00:59:23.820Z,89.80
2019-05-06T01:01:50.412Z,89.40
2019-05-06T01:04:18.567Z,89.60
2019-05-06T01:06:44.855Z,89.70
2019-05-06T01:09:14.394Z,89.70
2019-05-06T01:11:41.717Z,89.80
2019-05-06T01:14:10.015Z,89.70
2019-05-06T01:16:36.502Z,89.40
2019-05-06T01:19:04.708Z,89.70
2019-05-06T01:21:31.154Z,90.20
2019-05-06T01:23:57.560Z,90.30
2019-05-06T01:26:24.962Z,90.20
2019-05-06T01:28:51.264Z,90.20
2019-05-06T01:31:17.670Z,90.20
2019-05-06T01:33:45.307Z,90.20
2019-05-06T01:36:14.093Z,90.10
2019-05-06T01:38:43.862Z,90.20
2019-05-06T01:41:13.621Z,90.10
2019-05-06T01:43:43.892Z,90.00
2019-05-06T01:46:11.351Z,90.00
2019-05-06T01:48:47.091Z,89.60
2019-05-06T01:51:15.826Z,89.10
2019-05-06T01:53:44.747Z,89.50
2019-05-06T01:56:10.652Z,89.30
2019-05-06T01:58:37.052Z,89.50
2019-05-06T02:01:04.065Z,89.00
2019-05-06T02:03:32.056Z,88.70
2019-05-06T02:05:58.516Z,88.70
2019-05-06T02:08:24.888Z,88.80
2019-05-06T02:10:54.538Z,88.60
2019-05-06T02:13:21.234Z,88.90
2019-05-06T02:15:47.694Z,89.10
2019-05-06T02:18:16.077Z,89.30
2019-05-06T02:20:44.531Z,89.20
2019-05-06T02:23:14.570Z,88.40
2019-05-06T02:25:44.673Z,87.90
2019-05-06T02:28:11.144Z,87.60
2019-05-06T02:30:45.689Z,88.10
2019-05-06T02:33:26.269Z,88.10
2019-05-06T02:36:11.420Z,88.00
2019-05-06T02:38:47.022Z,87.70
2019-05-06T02:41:06.280Z,88.00
2019-05-06T02:43:34.405Z,88.00
2019-05-06T02:46:03.987Z,87.60
2019-05-06T02:48:48.262Z,87.70
2019-05-06T02:51:16.643Z,87.90
2019-05-06T02:53:43.184Z,87.70
2019-05-06T02:56:09.735Z,87.90
2019-05-06T02:58:36.186Z,87.20
2019-05-06T03:01:04.025Z,87.30
2019-05-06T03:03:33.527Z,87.20
2019-05-06T03:05:59.106Z,88.10
2019-05-06T03:08:25.585Z,87.10
2019-05-06T03:10:53.422Z,87.40
2019-05-06T03:13:23.649Z,86.90
2019-05-06T03:15:50.323Z,87.80
2019-05-06T03:18:17.049Z,87.90
2019-05-06T03:21:03.665Z,88.00
2019-05-06T03:23:34.774Z,87.90
2019-05-06T03:26:03.725Z,87.50
2019-05-06T03:28:29.831Z,87.50
2019-05-06T03:30:57.171Z,87.00
2019-05-06T03:33:55.331Z,87.00
2019-05-06T03:36:06.595Z,87.50
2019-05-06T03:38:22.879Z,87.60
2019-05-06T03:40:48.990Z,87.30
2019-05-06T03:43:16.080Z,87.50
2019-05-06T03:45:53.686Z,87.00
2019-05-06T03:48:23.978Z,86.60
2019-05-06T03:50:55.613Z,87.90
2019-05-06T03:53:18.934Z,87.10
2019-05-06T03:55:47.122Z,86.50
2019-05-06T03:58:13.610Z,86.40
2019-05-06T04:00:40.361Z,86.00
2019-05-06T04:03:06.782Z,86.30
2019-05-06T04:05:33.602Z,87.00
2019-05-06T04:08:03.603Z,86.90
2019-05-06T04:10:28.650Z,86.50
2019-05-06T04:12:55.167Z,86.60
2019-05-06T04:15:23.003Z,87.00
2019-05-06T04:17:53.767Z,86.50
2019-05-06T04:20:34.565Z,86.90
2019-05-06T04:23:05.917Z,87.30
2019-05-06T04:25:52.530Z,86.80
2019-05-06T04:28:20.040Z,87.00
2019-05-06T04:30:46.579Z,87.70
2019-05-06T04:33:17.438Z,87.60
2019-05-06T04:35:43.088Z,87.50
2019-05-06T04:38:13.642Z,88.20
2019-05-06T04:40:40.426Z,87.60
2019-05-06T04:43:07.076Z,86.90
2019-05-06T04:45:35.466Z,87.20
2019-05-06T04:48:03.598Z,87.40
2019-05-06T04:50:32.937Z,87.60
2019-05-06T04:53:05.216Z,87.80
2019-05-06T04:55:33.726Z,87.30
2019-05-06T04:58:04.420Z,87.50
2019-05-06T05:00:33.143Z,87.80
2019-05-06T05:02:59.481Z,87.60
2019-05-06T05:05:26.149Z,87.30
2019-05-06T05:07:53.109Z,87.40
2019-05-06T05:10:28.873Z,87.10
2019-05-06T05:13:06.567Z,86.70
2019-05-06T05:15:41.688Z,88.80
2019-05-06T05:18:13.068Z,87.40
2019-05-06T05:20:45.638Z,86.50
2019-05-06T05:23:08.075Z,86.70
2019-05-06T05:25:34.502Z,87.10
2019-05-06T05:28:02.182Z,87.90
2019-05-06T05:30:28.762Z,88.10
2019-05-06T05:32:55.272Z,87.60
2019-05-06T05:35:23.623Z,87.30
2019-05-06T05:37:52.797Z,87.80
2019-05-06T05:40:18.968Z,87.70
2019-05-06T05:42:56.719Z,87.80
2019-05-06T05:45:23.243Z,87.80
2019-05-06T05:47:52.176Z,87.30
2019-05-06T05:50:20.098Z,87.80
2019-05-06T05:52:46.712Z,87.60
2019-05-06T05:55:13.244Z,88.20
2019-05-06T05:57:43.084Z,88.00
2019-05-06T06:00:09.770Z,88.10
2019-05-06T06:02:36.903Z,87.70
2019-05-06T06:05:05.326Z,87.50
2019-05-06T06:07:32.751Z,87.50
2019-05-06T06:10:03.616Z,87.20
2019-05-06T06:12:32.427Z,87.90
2019-05-06T06:15:02.281Z,88.10
2019-05-06T06:17:42.581Z,88.10
2019-05-06T06:20:29.698Z,87.90
2019-05-06T06:22:58.312Z,88.10
2019-05-06T06:25:25.480Z,88.40
2019-05-06T06:27:52.347Z,87.80
2019-05-06T06:30:22.140Z,87.10
2019-05-06T06:32:48.954Z,87.20
2019-05-06T06:35:22.884Z,87.10
2019-05-06T06:37:52.314Z,86.60
2019-05-06T06:40:22.286Z,87.00
2019-05-06T06:42:52.459Z,87.20
2019-05-06T06:45:19.266Z,86.50
2019-05-06T06:47:45.822Z,85.60
2019-05-06T06:50:12.648Z,85.50
2019-05-06T06:52:42.196Z,84.90
2019-05-06T06:55:08.987Z,85.80
2019-05-06T06:57:52.829Z,86.30
2019-05-06T07:00:22.272Z,86.70
2019-05-06T07:03:02.830Z,87.80
2019-05-06T07:05:33.182Z,86.70
2019-05-06T07:08:02.049Z,85.20
2019-05-06T07:10:44.574Z,84.70
2019-05-06T07:13:13.264Z,84.90
2019-05-06T07:15:39.799Z,85.30
2019-05-06T07:18:07.518Z,85.40
2019-05-06T07:20:38.968Z,85.70
2019-05-06T07:23:25.104Z,86.30
2019-05-06T07:25:53.809Z,85.70
2019-05-06T07:28:22.764Z,85.40
2019-05-06T07:30:52.095Z,84.40
2019-05-06T07:33:18.172Z,84.70
2019-05-06T07:35:44.979Z,84.20
2019-05-06T07:38:12.565Z,84.70
2019-05-06T07:40:39.265Z,83.50
2019-05-06T07:43:24.403Z,83.80
2019-05-06T07:46:05.070Z,84.70
2019-05-06T07:48:32.044Z,81.40
2019-05-06T07:50:58.702Z,82.80
2019-05-06T07:53:25.268Z,83.60
2019-05-06T07:55:52.458Z,83.30
2019-05-06T07:58:19.133Z,81.60
2019-05-06T08:00:45.709Z,82.10
2019-05-06T08:03:14.012Z,82.00
2019-05-06T08:05:54.234Z,81.00
2019-05-06T08:08:09.080Z,81.30
2019-05-06T08:10:37.033Z,80.80
2019-05-06T08:13:03.634Z,79.60
2019-05-06T08:15:32.647Z,80.00
2019-05-06T08:17:59.437Z,79.60
2019-05-06T08:20:38.135Z,79.60
2019-05-06T08:23:07.885Z,79.30
2019-05-06T08:25:39.342Z,78.10
2019-05-06T08:28:06.071Z,75.10
2019-05-06T08:30:32.559Z,77.50
2019-05-06T08:32:58.921Z,77.20
2019-05-06T08:35:26.883Z,75.50
2019-05-06T08:37:53.296Z,75.40
2019-05-06T08:40:19.778Z,72.30
2019-05-06T08:42:48.107Z,72.50
2019-05-06T08:45:14.734Z,70.30
2019-05-06T08:47:42.494Z,69.50
2019-05-06T08:50:23.093Z,69.90
2019-05-06T08:52:54.542Z,69.30
2019-05-06T08:55:28.992Z,66.30
2019-05-06T08:57:55.517Z,66.60
2019-05-06T09:00:22.849Z,67.90
2019-05-06T09:02:49.515Z,67.20
2019-05-06T09:05:16.094Z,69.40
2019-05-06T09:07:44.572Z,70.80
2019-05-06T09:10:13.164Z,71.40
2019-05-06T09:12:39.753Z,71.10
2019-05-06T09:15:06.429Z,70.20
2019-05-06T09:17:35.050Z,71.00
2019-05-06T09:20:02.679Z,67.80
2019-05-06T09:22:29.577Z,62.40
2019-05-06T09:24:56.093Z,63.60
2019-05-06T09:27:42.145Z,62.70
2019-05-06T09:30:13.123Z,68.20
2019-05-06T09:32:42.910Z,69.00
2019-05-06T09:35:09.699Z,69.70
2019-05-06T09:37:36.142Z,68.40
2019-05-06T09:40:04.518Z,66.90
2019-05-06T09:42:32.213Z,65.10
2019-05-06T09:44:58.706Z,63.10
2019-05-06T09:47:34.172Z,63.20
2019-05-06T09:50:02.791Z,63.60
2019-05-06T09:52:29.044Z,59.30
2019-05-06T09:55:03.532Z,59.90
2019-05-06T09:57:32.734Z,61.30
2019-05-06T09:59:59.339Z,63.60
2019-05-06T10:02:25.800Z,62.10
2019-05-06T10:04:52.476Z,60.20
2019-05-06T10:07:18.830Z,61.50
2019-05-06T10:09:46.236Z,60.50
2019-05-06T10:12:12.956Z,58.00
2019-05-06T10:14:42.980Z,59.40
2019-05-06T10:17:08.746Z,61.30
2019-05-06T10:19:35.762Z,59.80
2019-05-06T10:22:03.558Z,61.50
2019-05-06T10:24:32.398Z,62.10
2019-05-06T10:26:58.989Z,62.40
2019-05-06T10:29:27.181Z,63.70
2019-05-06T10:32:01.704Z,62.20
2019-05-06T10:34:28.061Z,60.00
2019-05-06T10:37:19.211Z,58.30
2019-05-06T10:39:47.032Z,56.80
2019-05-06T10:42:16.555Z,57.80
2019-05-06T10:45:09.779Z,57.20
2019-05-06T10:47:37.385Z,57.10
2019-05-06T10:50:03.828Z,56.50
2019-05-06T10:52:33.296Z,59.00
2019-05-06T10:54:59.912Z,59.00
2019-05-06T10:57:28.223Z,59.60
2019-05-06T10:59:54.763Z,56.60
2019-05-06T11:02:42.851Z,56.80
2019-05-06T11:05:09.313Z,56.00
2019-05-06T11:07:36.362Z,59.30
2019-05-06T11:10:04.062Z,55.50
2019-05-06T11:12:32.445Z,54.10
2019-05-06T11:14:58.848Z,55.90
2019-05-06T11:17:25.311Z,56.50
2019-05-06T11:19:53.305Z,56.90
2019-05-06T11:22:23.979Z,56.40
2019-05-06T11:24:50.171Z,55.10
2019-05-06T11:27:27.666Z,53.90
2019-05-06T11:29:46.683Z,53.90
2019-05-06T11:32:14.961Z,55.50
2019-05-06T11:34:43.217Z,56.30
2019-05-06T11:37:23.484Z,56.50
2019-05-06T11:39:49.939Z,57.00
2019-05-06T11:42:27.983Z,59.00
2019-05-06T11:44:46.369Z,58.50
2019-05-06T11:47:12.787Z,59.70
2019-05-06T11:49:40.607Z,58.30
2019-05-06T11:52:07.020Z,57.30
2019-05-06T11:54:33.870Z,55.90
2019-05-06T11:57:06.828Z,54.00
2019-05-06T11:59:36.023Z,54.50
2019-05-06T12:02:08.436Z,55.30
2019-05-06T12:04:34.924Z,54.30
2019-05-06T12:07:10.223Z,56.00
2019-05-06T12:09:33.074Z,55.80
2019-05-06T12:11:58.939Z,53.80
2019-05-06T12:14:26.449Z,53.00
2019-05-06T12:16:55.051Z,51.40
2019-05-06T12:19:22.526Z,54.60
2019-05-06T12:21:49.141Z,53.30
2019-05-06T12:24:15.814Z,53.70
2019-05-06T12:26:44.080Z,55.20
2019-05-06T12:29:12.516Z,54.90
2019-05-06T12:31:38.643Z,56.30
2019-05-06T12:34:05.029Z,57.20
2019-05-06T12:36:32.553Z,57.90
2019-05-06T12:39:19.833Z,57.70
2019-05-06T12:42:05.080Z,52.10
2019-05-06T12:44:33.762Z,55.30
2019-05-06T12:47:08.287Z,56.10
2019-05-06T12:49:34.779Z,55.80
2019-05-06T12:52:01.148Z,55.60
2019-05-06T12:54:27.614Z,55.70
2019-05-06T12:56:56.597Z,56.40
2019-05-06T12:59:22.966Z,55.60
2019-05-06T13:01:49.645Z,54.50
2019-05-06T13:04:16.144Z,53.70
2019-05-06T13:06:46.124Z,53.40
2019-05-06T13:09:12.757Z,53.60
2019-05-06T13:11:39.279Z,54.50
2019-05-06T13:14:05.706Z,55.20
2019-05-06T13:16:33.644Z,55.40
2019-05-06T13:19:03.529Z,54.20
2019-05-06T13:21:32.569Z,54.60
2019-05-06T13:24:02.470Z,51.70
2019-05-06T13:26:32.531Z,53.10
2019-05-06T13:29:04.291Z,51.50
2019-05-06T13:31:32.682Z,52.90
2019-05-06T13:34:05.548Z,53.00
2019-05-06T13:36:33.310Z,52.00
2019-05-06T13:39:13.312Z,51.10
2019-05-06T13:41:32.539Z,52.10
2019-05-06T13:44:06.656Z,51.60
2019-05-06T13:46:44.203Z,52.60
2019-05-06T13:49:30.879Z,52.00
2019-05-06T13:52:04.215Z,51.00
2019-05-06T13:54:29.688Z,48.80
2019-05-06T13:56:56.087Z,48.80
2019-05-06T13:59:22.651Z,48.40
2019-05-06T14:02:07.051Z,49.90
2019-05-06T14:04:32.492Z,50.50
2019-05-06T14:07:03.443Z,51.20
2019-05-06T14:09:34.560Z,50.80
2019-05-06T14:11:57.987Z,49.90
2019-05-06T14:14:24.535Z,48.70
2019-05-06T14:16:53.311Z,48.80
2019-05-06T14:19:19.491Z,49.50
2019-05-06T14:21:46.030Z,49.90
2019-05-06T14:24:13.420Z,48.60
2019-05-06T14:26:48.908Z,47.90
2019-05-06T14:29:37.229Z,49.40
2019-05-06T14:32:04.872Z,51.30
2019-05-06T14:34:32.491Z,50.40
2019-05-06T14:36:59.123Z,50.40
2019-05-06T14:39:47.404Z,50.80
2019-05-06T14:41:57.056Z,50.60
2019-05-06T14:44:23.533Z,50.60
2019-05-06T14:46:58.421Z,50.30
2019-05-06T14:49:24.976Z,50.80
2019-05-06T14:51:53.497Z,51.80
2019-05-06T14:54:21.700Z,52.70
2019-05-06T14:56:55.529Z,51.30
2019-05-06T14:59:23.434Z,50.20
2019-05-06T15:01:53.403Z,50.30
2019-05-06T15:04:18.277Z,50.40
2019-05-06T15:06:45.590Z,50.90
2019-05-06T15:09:13.399Z,51.10
2019-05-06T15:11:40.008Z,51.00
2019-05-06T15:14:06.509Z,50.80
2019-05-06T15:16:33.793Z,50.60
2019-05-06T15:19:03.634Z,50.70
2019-05-06T15:21:37.543Z,50.20
2019-05-06T15:23:57.639Z,49.40
2019-05-06T15:26:24.097Z,49.70
2019-05-06T15:28:52.806Z,50.00
2019-05-06T15:31:32.470Z,51.20
2019-05-06T15:34:16.680Z,50.40
2019-05-06T15:36:53.991Z,50.00
2019-05-06T15:39:20.483Z,50.20
2019-05-06T15:41:46.889Z,50.40
2019-05-06T15:44:13.319Z,50.60
2019-05-06T15:46:39.982Z,50.80
2019-05-06T15:49:06.473Z,49.90
2019-05-06T15:51:35.911Z,49.90
2019-05-06T15:54:03.795Z,49.30
2019-05-06T15:56:32.767Z,48.90
2019-05-06T15:58:58.459Z,48.80
2019-05-06T16:01:24.995Z,49.40
2019-05-06T16:03:53.322Z,48.90
2019-05-06T16:06:19.597Z,49.00
2019-05-06T16:08:47.081Z,49.60
2019-05-06T16:11:13.531Z,49.90
2019-05-06T16:13:42.550Z,49.00
2019-05-06T16:16:08.303Z,48.20
2019-05-06T16:18:34.740Z,48.30
2019-05-06T16:21:02.932Z,47.70
2019-05-06T16:23:34.190Z,47.70
2019-05-06T16:26:02.824Z,47.30
2019-05-06T16:28:28.834Z,47.60
2019-05-06T16:30:56.520Z,48.00
2019-05-06T16:33:24.008Z,47.60
2019-05-06T16:35:52.227Z,47.90
2019-05-06T16:38:18.821Z,48.20
2019-05-06T16:40:45.541Z,48.20
2019-05-06T16:43:12.577Z,48.50
2019-05-06T16:45:42.775Z,48.90
2019-05-06T16:48:09.695Z,48.50
2019-05-06T16:50:36.248Z,48.70
2019-05-06T16:53:03.364Z,48.60
2019-05-06T16:55:48.749Z,48.90
2019-05-06T16:58:17.067Z,49.50
2019-05-06T17:00:43.557Z,49.10
2019-05-06T17:03:14.429Z,49.80
2019-05-06T17:05:59.003Z,50.90
2019-05-06T17:08:25.304Z,51.00
2019-05-06T17:10:53.120Z,51.20
2019-05-06T17:13:23.777Z,51.50
2019-05-06T17:15:52.766Z,51.80
2019-05-06T17:18:18.243Z,53.00
2019-05-06T17:20:44.829Z,53.60
2019-05-06T17:23:13.137Z,54.10
2019-05-06T17:25:39.677Z,54.10
2019-05-06T17:28:22.229Z,52.60
2019-05-06T17:30:53.710Z,51.70
2019-05-06T17:33:38.470Z,51.30
2019-05-06T17:36:07.877Z,51.20
2019-05-06T17:38:36.253Z,50.90
2019-05-06T17:41:03.061Z,51.30
2019-05-06T17:43:29.482Z,50.80
2019-05-06T17:46:02.321Z,51.10
2019-05-06T17:48:34.096Z,51.50
2019-05-06T17:51:14.459Z,51.80
2019-05-06T17:53:44.317Z,52.20
2019-05-06T17:56:12.579Z,52.90
2019-05-06T17:58:38.915Z,53.60
2019-05-06T18:01:06.995Z,53.90
2019-05-06T18:03:33.494Z,53.30
2019-05-06T18:05:59.905Z,53.00
2019-05-06T18:08:26.512Z,53.10
2019-05-06T18:10:52.966Z,53.10
2019-05-06T18:13:19.386Z,52.90
2019-05-06T18:15:46.878Z,53.00
2019-05-06T18:18:13.332Z,53.10
2019-05-06T18:20:39.775Z,53.40
2019-05-06T18:23:06.373Z,53.70
2019-05-06T18:25:33.197Z,53.90
2019-05-06T18:28:00.988Z,54.10
2019-05-06T18:30:33.718Z,54.00
2019-05-06T18:32:55.752Z,54.00
2019-05-06T18:35:23.312Z,54.80
2019-05-06T18:37:52.246Z,54.50
2019-05-06T18:40:18.695Z,55.00
2019-05-06T18:42:44.995Z,55.00
2019-05-06T18:45:12.351Z,55.50
2019-05-06T18:47:38.746Z,56.40
2019-05-06T18:50:06.292Z,56.80
2019-05-06T18:52:32.765Z,56.90
2019-05-06T18:54:59.123Z,56.90
2019-05-06T18:57:25.666Z,56.90
2019-05-06T18:59:53.246Z,57.20
2019-05-06T19:02:19.934Z,57.10
2019-05-06T19:04:48.309Z,56.90
2019-05-06T19:07:17.124Z,56.40
2019-05-06T19:09:52.355Z,56.90
2019-05-06T19:12:30.234Z,56.90
2019-05-06T19:14:47.151Z,57.20
2019-05-06T19:17:13.686Z,57.00
2019-05-06T19:19:42.607Z,56.90
2019-05-06T19:22:09.341Z,56.80
2019-05-06T19:24:35.753Z,57.70
2019-05-06T19:27:02.276Z,58.10
2019-05-06T19:29:28.927Z,59.30
2019-05-06T19:31:55.329Z,57.60
2019-05-06T19:34:23.602Z,57.80
2019-05-06T19:36:50.083Z,57.80
2019-05-06T19:39:17.401Z,58.10
2019-05-06T19:41:45.720Z,58.40
2019-05-06T19:44:12.853Z,58.90
2019-05-06T19:46:39.381Z,59.40
2019-05-06T19:49:05.858Z,60.00
2019-05-06T19:51:33.017Z,60.20
2019-05-06T19:53:59.560Z,60.50
2019-05-06T19:56:26.127Z,60.80
2019-05-06T19:58:52.703Z,61.00
2019-05-06T20:01:19.461Z,62.00
2019-05-06T20:03:46.133Z,62.40
2019-05-06T20:06:32.468Z,62.30
2019-05-06T20:09:02.284Z,62.50
2019-05-06T20:11:33.107Z,63.00
2019-05-06T20:14:01.957Z,63.20
2019-05-06T20:16:28.009Z,63.10
2019-05-06T20:18:54.404Z,63.10
2019-05-06T20:21:23.058Z,63.00
2019-05-06T20:23:52.540Z,62.80
2019-05-06T20:26:21.444Z,63.00
2019-05-06T20:28:48.490Z,62.80
2019-05-06T20:31:16.306Z,62.70
2019-05-06T20:33:43.889Z,62.40
2019-05-06T20:36:13.995Z,62.30
2019-05-06T20:38:42.345Z,62.40
2019-05-06T20:41:12.474Z,62.20
2019-05-06T20:43:38.900Z,62.10
2019-05-06T20:46:05.588Z,62.30
2019-05-06T20:48:32.667Z,62.50
2019-05-06T20:50:59.258Z,63.00
2019-05-06T20:53:26.078Z,62.80
2019-05-06T20:55:53.306Z,62.80
2019-05-06T20:58:20.268Z,62.70
2019-05-06T21:00:47.018Z,63.20
2019-05-06T21:03:15.418Z,63.40
2019-05-06T21:05:43.446Z,63.70
2019-05-06T21:08:12.746Z,63.80
2019-05-06T21:10:38.977Z,63.80
2019-05-06T21:13:05.628Z,63.70
2019-05-06T21:15:32.568Z,64.80
2019-05-06T21:18:03.761Z,63.90
2019-05-06T21:20:28.922Z,64.00
2019-05-06T21:22:55.702Z,64.00
2019-05-06T21:25:23.592Z,63.90
2019-05-06T21:27:50.281Z,64.50
2019-05-06T21:30:16.699Z,64.40
2019-05-06T21:32:45.218Z,64.40
2019-05-06T21:35:12.574Z,64.50
2019-05-06T21:37:39.475Z,64.40
2019-05-06T21:40:06.226Z,64.50
2019-05-06T21:42:33.304Z,64.20
2019-05-06T21:45:07.740Z,64.30
2019-05-06T21:47:38.469Z,64.30
2019-05-06T21:50:05.211Z,64.20
2019-05-06T21:52:39.285Z,64.00
2019-05-06T21:55:02.401Z,63.80
2019-05-06T21:57:28.937Z,63.80
2019-05-06T21:59:55.459Z,63.80
2019-05-06T22:02:23.002Z,64.00
2019-05-06T22:04:52.353Z,63.90
2019-05-06T22:07:18.951Z,64.00
2019-05-06T22:09:46.464Z,63.90
2019-05-06T22:12:13.005Z,64.20
2019-05-06T22:14:42.258Z,63.90
2019-05-06T22:17:08.891Z,63.70
2019-05-06T22:19:35.331Z,64.20
2019-05-06T22:22:06.626Z,64.20
2019-05-06T22:24:42.713Z,64.20
2019-05-06T22:27:09.786Z,64.20
2019-05-06T22:29:36.759Z,64.30
2019-05-06T22:32:04.275Z,64.70
2019-05-06T22:34:32.823Z,64.40
2019-05-06T22:37:03.171Z,64.20
2019-05-06T22:39:29.254Z,64.20
2019-05-06T22:41:55.921Z,64.40
2019-05-06T22:44:24.347Z,64.50
2019-05-06T22:46:50.734Z,64.60
2019-05-06T22:49:18.290Z,64.80
2019-05-06T22:51:44.844Z,64.90
2019-05-06T22:54:11.234Z,64.80
2019-05-06T22:56:37.726Z,64.80
2019-05-06T22:59:04.152Z,64.60
2019-05-06T23:01:38.369Z,65.70
2019-05-06T23:04:05.735Z,65.00
2019-05-06T23:06:32.978Z,65.30
2019-05-06T23:09:02.570Z,65.10
2019-05-06T23:11:32.848Z,66.40
2019-05-06T23:13:59.159Z,65.80
2019-05-06T23:16:25.588Z,65.80
2019-05-06T23:18:52.446Z,65.40
2019-05-06T23:21:19.096Z,65.50
2019-05-06T23:23:48.317Z,65.70
2019-05-06T23:26:18.661Z,65.50
2019-05-06T23:28:45.780Z,65.70
2019-05-06T23:31:12.257Z,66.40
2019-05-06T23:33:38.814Z,66.00
2019-05-06T23:36:05.302Z,65.50
2019-05-06T23:39:09.454Z,66.10
2019-05-06T23:42:13.442Z,65.90
2019-05-06T23:45:19.294Z,66.20
2019-05-06T23:48:23.401Z,66.30
2019-05-06T23:51:27.553Z,66.50
2019-05-06T23:54:32.833Z,66.20
2019-05-06T23:56:59.148Z,66.40
2019-05-06T23:59:25.606Z,66.50
